sensor_id;sensor_type;location;lat;lon;timestamp;pressure;altitude;pressure_sealevel;temperature;humidity
4570;BME280;2297;51.442;6.996;2023-04-01T00:01:14;98059.25;;;10.38;65.03
4570;BME280;2297;51.442;6.996;2023-04-01T00:03:41;98058.63;;;10.01;66.32
4570;BME280;2297;51.442;6.996;2023-04-01T00:06:09;98051.19;;;9.92;66.31
4570;BME280;2297;51.442;6.996;2023-04-01T00:08:37;98046.19;;;10.03;65.86
4570;BME280;2297;51.442;6.996;2023-04-01T00:11:04;98036.78;;;9.81;66.11
4570;BME280;2297;51.442;6.996;2023-04-01T00:13:31;98038.72;;;9.78;66.68
4570;BME280;2297;51.442;6.996;2023-04-01T00:15:59;98040.88;;;10.21;65.16
4570;BME280;2297;51.442;6.996;2023-04-01T00:18:26;98038.56;;;10.14;65.13
4570;BME280;2297;51.442;6.996;2023-04-01T00:20:53;98042.81;;;10.01;65.83
4570;BME280;2297;51.442;6.996;2023-04-01T00:23:20;98036.97;;;9.78;66.36
4570;BME280;2297;51.442;6.996;2023-04-01T00:25:47;98043.13;;;9.95;65.85
4570;BME280;2297;51.442;6.996;2023-04-01T00:28:14;98044.19;;;9.75;67.33
4570;BME280;2297;51.442;6.996;2023-04-01T00:30:41;98042.38;;;9.75;67.17
4570;BME280;2297;51.442;6.996;2023-04-01T00:33:09;98034.31;;;9.62;67.19
4570;BME280;2297;51.442;6.996;2023-04-01T00:35:36;98027.94;;;9.67;67.23
4570;BME280;2297;51.442;6.996;2023-04-01T00:38:04;98039.16;;;10.20;66.09
4570;BME280;2297;51.442;6.996;2023-04-01T00:40:34;98029.34;;;10.22;65.84
4570;BME280;2297;51.442;6.996;2023-04-01T00:43:02;98026.56;;;9.75;67.07
4570;BME280;2297;51.442;6.996;2023-04-01T00:45:32;98039.97;;;9.55;67.70
4570;BME280;2297;51.442;6.996;2023-04-01T00:48:03;98020.63;;;9.72;67.70
4570;BME280;2297;51.442;6.996;2023-04-01T00:50:33;98023.56;;;9.99;66.47
4570;BME280;2297;51.442;6.996;2023-04-01T00:53:01;98030.69;;;9.81;66.38
4570;BME280;2297;51.442;6.996;2023-04-01T00:55:31;98026.63;;;10.07;65.83
4570;BME280;2297;51.442;6.996;2023-04-01T00:58:00;98030.38;;;10.03;66.47
4570;BME280;2297;51.442;6.996;2023-04-01T01:00:28;98025.63;;;9.76;67.23
4570;BME280;2297;51.442;6.996;2023-04-01T01:02:54;98025.47;;;9.79;66.98
4570;BME280;2297;51.442;6.996;2023-04-01T01:05:26;98017.13;;;10.21;65.97
4570;BME280;2297;51.442;6.996;2023-04-01T01:08:01;98032.63;;;9.44;67.59
4570;BME280;2297;51.442;6.996;2023-04-01T01:10:31;98059.91;;;9.76;66.55
4570;BME280;2297;51.442;6.996;2023-04-01T01:13:05;98037.38;;;9.37;68.34
4570;BME280;2297;51.442;6.996;2023-04-01T01:15:41;98029.88;;;9.63;67.61
4570;BME280;2297;51.442;6.996;2023-04-01T01:18:18;98016.00;;;9.59;67.23
4570;BME280;2297;51.442;6.996;2023-04-01T01:21:04;98016.81;;;9.77;66.49
4570;BME280;2297;51.442;6.996;2023-04-01T01:24:04;98020.19;;;9.97;66.16
4570;BME280;2297;51.442;6.996;2023-04-01T01:26:58;98040.97;;;9.52;67.10
4570;BME280;2297;51.442;6.996;2023-04-01T01:33:17;98015.81;;;9.46;67.44
4570;BME280;2297;51.442;6.996;2023-04-01T01:35:49;98009.28;;;9.03;69.67
4570;BME280;2297;51.442;6.996;2023-04-01T01:38:18;98016.28;;;9.20;68.59
4570;BME280;2297;51.442;6.996;2023-04-01T01:40:47;98016.59;;;9.31;68.28
4570;BME280;2297;51.442;6.996;2023-04-01T01:43:19;98022.63;;;9.51;67.56
4570;BME280;2297;51.442;6.996;2023-04-01T01:49:09;98016.34;;;9.36;67.85
4570;BME280;2297;51.442;6.996;2023-04-01T01:51:38;98009.72;;;9.62;66.87
4570;BME280;2297;51.442;6.996;2023-04-01T01:54:05;98007.19;;;9.76;66.27
4570;BME280;2297;51.442;6.996;2023-04-01T01:56:32;98005.84;;;9.69;66.16
4570;BME280;2297;51.442;6.996;2023-04-01T01:59:03;98009.78;;;9.94;64.94
4570;BME280;2297;51.442;6.996;2023-04-01T02:01:35;98032.81;;;9.90;65.00
4570;BME280;2297;51.442;6.996;2023-04-01T02:04:03;98008.56;;;9.84;65.38
4570;BME280;2297;51.442;6.996;2023-04-01T02:06:34;98008.44;;;10.03;64.50
4570;BME280;2297;51.442;6.996;2023-04-01T02:09:06;98002.97;;;10.06;64.78
4570;BME280;2297;51.442;6.996;2023-04-01T02:11:39;98007.63;;;9.85;65.57
4570;BME280;2297;51.442;6.996;2023-04-01T02:14:10;98017.06;;;9.39;66.68
4570;BME280;2297;51.442;6.996;2023-04-01T02:16:45;98007.00;;;9.79;66.04
4570;BME280;2297;51.442;6.996;2023-04-01T02:19:15;98021.03;;;9.64;66.52
4570;BME280;2297;51.442;6.996;2023-04-01T02:21:49;98021.19;;;9.61;66.83
4570;BME280;2297;51.442;6.996;2023-04-01T02:24:19;98014.31;;;10.08;65.34
4570;BME280;2297;51.442;6.996;2023-04-01T02:26:48;98020.19;;;9.97;65.69
4570;BME280;2297;51.442;6.996;2023-04-01T02:29:16;98013.81;;;9.68;66.77
4570;BME280;2297;51.442;6.996;2023-04-01T02:31:45;98023.81;;;9.61;66.89
4570;BME280;2297;51.442;6.996;2023-04-01T02:34:12;98020.59;;;9.56;67.29
4570;BME280;2297;51.442;6.996;2023-04-01T02:36:39;98026.50;;;9.43;68.18
4570;BME280;2297;51.442;6.996;2023-04-01T02:39:06;98036.59;;;9.35;67.92
4570;BME280;2297;51.442;6.996;2023-04-01T02:41:39;98038.63;;;9.79;67.00
4570;BME280;2297;51.442;6.996;2023-04-01T02:44:07;98026.84;;;9.37;68.05
4570;BME280;2297;51.442;6.996;2023-04-01T02:46:34;98017.44;;;9.31;68.07
4570;BME280;2297;51.442;6.996;2023-04-01T02:49:00;98024.53;;;9.80;67.41
4570;BME280;2297;51.442;6.996;2023-04-01T02:51:27;98024.72;;;9.77;66.99
4570;BME280;2297;51.442;6.996;2023-04-01T02:53:54;98036.94;;;9.96;66.56
4570;BME280;2297;51.442;6.996;2023-04-01T02:56:20;98046.06;;;10.22;66.22
4570;BME280;2297;51.442;6.996;2023-04-01T02:58:48;98049.28;;;10.11;67.07
4570;BME280;2297;51.442;6.996;2023-04-01T03:01:15;98038.22;;;10.53;66.59
4570;BME280;2297;51.442;6.996;2023-04-01T03:03:42;98034.78;;;10.51;66.49
4570;BME280;2297;51.442;6.996;2023-04-01T03:06:11;98036.34;;;10.23;66.59
4570;BME280;2297;51.442;6.996;2023-04-01T03:08:38;98027.41;;;10.41;66.71
4570;BME280;2297;51.442;6.996;2023-04-01T03:11:05;98031.84;;;10.25;66.85
4570;BME280;2297;51.442;6.996;2023-04-01T03:13:31;98034.75;;;9.87;67.91
4570;BME280;2297;51.442;6.996;2023-04-01T03:16:00;98034.13;;;9.99;67.65
4570;BME280;2297;51.442;6.996;2023-04-01T03:18:26;98031.84;;;9.91;67.81
4570;BME280;2297;51.442;6.996;2023-04-01T03:20:53;98049.28;;;9.78;68.43
4570;BME280;2297;51.442;6.996;2023-04-01T03:23:20;98048.38;;;9.28;69.69
4570;BME280;2297;51.442;6.996;2023-04-01T03:25:46;98044.31;;;9.56;69.16
4570;BME280;2297;51.442;6.996;2023-04-01T03:28:13;98043.28;;;9.92;68.53
4570;BME280;2297;51.442;6.996;2023-04-01T03:30:40;98051.88;;;9.62;68.51
4570;BME280;2297;51.442;6.996;2023-04-01T03:33:08;98051.78;;;9.81;68.78
4570;BME280;2297;51.442;6.996;2023-04-01T03:35:35;98059.34;;;9.54;68.37
4570;BME280;2297;51.442;6.996;2023-04-01T03:38:15;98049.38;;;9.76;68.38
4570;BME280;2297;51.442;6.996;2023-04-01T03:40:42;98046.00;;;9.57;69.09
4570;BME280;2297;51.442;6.996;2023-04-01T03:43:08;98053.41;;;9.66;68.83
4570;BME280;2297;51.442;6.996;2023-04-01T03:45:35;98056.22;;;9.63;69.20
4570;BME280;2297;51.442;6.996;2023-04-01T03:48:02;98058.03;;;9.62;68.92
4570;BME280;2297;51.442;6.996;2023-04-01T03:50:30;98058.38;;;9.72;68.88
4570;BME280;2297;51.442;6.996;2023-04-01T03:52:56;98054.81;;;9.73;68.07
4570;BME280;2297;51.442;6.996;2023-04-01T03:55:23;98061.31;;;9.84;68.52
4570;BME280;2297;51.442;6.996;2023-04-01T03:57:49;98059.50;;;9.51;68.94
4570;BME280;2297;51.442;6.996;2023-04-01T04:00:16;98058.38;;;9.72;68.67
4570;BME280;2297;51.442;6.996;2023-04-01T04:02:43;98057.31;;;9.59;68.99
4570;BME280;2297;51.442;6.996;2023-04-01T04:05:10;98058.63;;;10.01;67.80
4570;BME280;2297;51.442;6.996;2023-04-01T04:07:38;98069.63;;;9.92;67.73
4570;BME280;2297;51.442;6.996;2023-04-01T04:10:06;98050.50;;;9.88;67.60
4570;BME280;2297;51.442;6.996;2023-04-01T04:12:33;98058.22;;;9.91;67.78
4570;BME280;2297;51.442;6.996;2023-04-01T04:14:59;98062.50;;;9.94;67.83
4570;BME280;2297;51.442;6.996;2023-04-01T04:17:26;98065.97;;;9.61;68.91
4570;BME280;2297;51.442;6.996;2023-04-01T04:19:52;98062.94;;;9.69;68.38
4570;BME280;2297;51.442;6.996;2023-04-01T04:22:19;98077.13;;;9.84;68.25
4570;BME280;2297;51.442;6.996;2023-04-01T04:24:47;98069.25;;;9.48;68.71
4570;BME280;2297;51.442;6.996;2023-04-01T04:27:14;98068.59;;;9.78;68.12
4570;BME280;2297;51.442;6.996;2023-04-01T04:29:40;98079.50;;;9.55;68.65
4570;BME280;2297;51.442;6.996;2023-04-01T04:32:10;98071.81;;;9.68;68.26
4570;BME280;2297;51.442;6.996;2023-04-01T04:34:37;98073.53;;;9.85;67.73
4570;BME280;2297;51.442;6.996;2023-04-01T04:37:03;98072.16;;;9.77;67.79
4570;BME280;2297;51.442;6.996;2023-04-01T04:39:30;98068.75;;;9.75;68.03
4570;BME280;2297;51.442;6.996;2023-04-01T04:41:58;98064.78;;;9.51;68.91
4570;BME280;2297;51.442;6.996;2023-04-01T04:44:25;98071.03;;;9.65;68.37
4570;BME280;2297;51.442;6.996;2023-04-01T04:46:51;98081.00;;;9.76;68.22
4570;BME280;2297;51.442;6.996;2023-04-01T04:49:21;98082.22;;;9.87;67.39
4570;BME280;2297;51.442;6.996;2023-04-01T04:51:48;98076.63;;;9.93;67.21
4570;BME280;2297;51.442;6.996;2023-04-01T04:54:23;98084.72;;;9.72;67.48
4570;BME280;2297;51.442;6.996;2023-04-01T04:56:51;98085.00;;;10.01;67.00
4570;BME280;2297;51.442;6.996;2023-04-01T04:59:19;98080.69;;;9.82;67.49
4570;BME280;2297;51.442;6.996;2023-04-01T05:01:46;98089.41;;;10.17;66.21
4570;BME280;2297;51.442;6.996;2023-04-01T05:04:13;98089.78;;;10.10;66.39
4570;BME280;2297;51.442;6.996;2023-04-01T05:06:41;98085.50;;;10.08;66.88
4570;BME280;2297;51.442;6.996;2023-04-01T05:09:08;98084.31;;;10.13;66.61
4570;BME280;2297;51.442;6.996;2023-04-01T05:11:35;98094.25;;;9.75;68.06
4570;BME280;2297;51.442;6.996;2023-04-01T05:14:01;98087.97;;;9.77;68.43
4570;BME280;2297;51.442;6.996;2023-04-01T05:16:29;98088.19;;;9.90;67.53
4570;BME280;2297;51.442;6.996;2023-04-01T05:18:56;98096.81;;;9.76;68.08
4570;BME280;2297;51.442;6.996;2023-04-01T05:21:23;98095.59;;;9.66;68.51
4570;BME280;2297;51.442;6.996;2023-04-01T05:23:49;98096.59;;;9.63;68.86
4570;BME280;2297;51.442;6.996;2023-04-01T05:26:16;98102.50;;;9.51;68.90
4570;BME280;2297;51.442;6.996;2023-04-01T05:28:43;98111.88;;;9.57;68.68
4570;BME280;2297;51.442;6.996;2023-04-01T05:31:10;98093.50;;;9.55;69.16
4570;BME280;2297;51.442;6.996;2023-04-01T05:33:38;98100.66;;;10.04;67.69
4570;BME280;2297;51.442;6.996;2023-04-01T05:36:06;98108.75;;;9.84;68.26
4570;BME280;2297;51.442;6.996;2023-04-01T05:38:33;98104.38;;;9.49;69.60
4570;BME280;2297;51.442;6.996;2023-04-01T05:41:00;98100.00;;;9.65;69.06
4570;BME280;2297;51.442;6.996;2023-04-01T05:43:27;98105.59;;;10.10;67.53
4570;BME280;2297;51.442;6.996;2023-04-01T05:45:55;98111.97;;;10.06;67.52
4570;BME280;2297;51.442;6.996;2023-04-01T05:48:21;98107.88;;;10.17;67.14
4570;BME280;2297;51.442;6.996;2023-04-01T05:50:49;98113.94;;;10.19;66.75
4570;BME280;2297;51.442;6.996;2023-04-01T05:53:16;98103.81;;;10.11;67.05
4570;BME280;2297;51.442;6.996;2023-04-01T05:55:52;98116.63;;;10.01;67.34
4570;BME280;2297;51.442;6.996;2023-04-01T05:58:18;98112.91;;;10.05;67.30
4570;BME280;2297;51.442;6.996;2023-04-01T06:00:45;98118.53;;;10.31;66.62
4570;BME280;2297;51.442;6.996;2023-04-01T06:03:11;98113.09;;;10.02;67.50
4570;BME280;2297;51.442;6.996;2023-04-01T06:05:40;98118.06;;;9.73;68.42
4570;BME280;2297;51.442;6.996;2023-04-01T06:08:39;98121.59;;;10.23;67.29
4570;BME280;2297;51.442;6.996;2023-04-01T06:11:16;98114.47;;;10.25;66.80
4570;BME280;2297;51.442;6.996;2023-04-01T06:17:19;98120.00;;;10.37;66.36
4570;BME280;2297;51.442;6.996;2023-04-01T06:19:52;98124.28;;;10.39;66.15
4570;BME280;2297;51.442;6.996;2023-04-01T06:22:35;98133.22;;;9.86;67.59
4570;BME280;2297;51.442;6.996;2023-04-01T06:25:24;98131.63;;;10.17;67.14
4570;BME280;2297;51.442;6.996;2023-04-01T06:30:47;98143.94;;;10.00;67.80
4570;BME280;2297;51.442;6.996;2023-04-01T06:36:25;98148.16;;;9.69;68.69
4570;BME280;2297;51.442;6.996;2023-04-01T06:39:02;98146.88;;;9.94;67.97
4570;BME280;2297;51.442;6.996;2023-04-01T06:42:03;98145.38;;;9.55;69.16
4570;BME280;2297;51.442;6.996;2023-04-01T06:44:41;98140.84;;;9.92;68.02
4570;BME280;2297;51.442;6.996;2023-04-01T06:47:23;98143.03;;;9.84;68.35
4570;BME280;2297;51.442;6.996;2023-04-01T06:50:01;98148.13;;;10.04;67.45
4570;BME280;2297;51.442;6.996;2023-04-01T06:52:40;98152.78;;;9.81;68.04
4570;BME280;2297;51.442;6.996;2023-04-01T06:55:25;98152.19;;;9.59;69.23
4570;BME280;2297;51.442;6.996;2023-04-01T06:57:56;98147.41;;;10.01;68.02
4570;BME280;2297;51.442;6.996;2023-04-01T07:00:28;98141.69;;;10.26;66.51
4570;BME280;2297;51.442;6.996;2023-04-01T07:03:04;98153.13;;;10.42;66.27
4570;BME280;2297;51.442;6.996;2023-04-01T07:05:33;98158.41;;;10.42;66.59
4570;BME280;2297;51.442;6.996;2023-04-01T07:08:02;98159.41;;;10.24;66.45
4570;BME280;2297;51.442;6.996;2023-04-01T07:10:35;98159.81;;;10.32;66.70
4570;BME280;2297;51.442;6.996;2023-04-01T07:13:13;98154.97;;;10.40;66.65
4570;BME280;2297;51.442;6.996;2023-04-01T07:15:54;98158.84;;;10.01;67.25
4570;BME280;2297;51.442;6.996;2023-04-01T07:18:31;98164.94;;;10.02;67.01
4570;BME280;2297;51.442;6.996;2023-04-01T07:20:59;98170.91;;;9.70;68.31
4570;BME280;2297;51.442;6.996;2023-04-01T07:23:31;98171.97;;;10.19;67.03
4570;BME280;2297;51.442;6.996;2023-04-01T07:26:00;98171.53;;;9.75;67.97
4570;BME280;2297;51.442;6.996;2023-04-01T07:28:31;98178.31;;;9.81;68.17
4570;BME280;2297;51.442;6.996;2023-04-01T07:31:07;98181.78;;;9.99;68.01
4570;BME280;2297;51.442;6.996;2023-04-01T07:33:44;98174.84;;;10.14;67.24
4570;BME280;2297;51.442;6.996;2023-04-01T07:36:17;98187.22;;;9.96;67.72
4570;BME280;2297;51.442;6.996;2023-04-01T07:38:55;98184.19;;;10.37;66.74
4570;BME280;2297;51.442;6.996;2023-04-01T07:41:32;98192.03;;;10.05;67.17
4570;BME280;2297;51.442;6.996;2023-04-01T07:44:11;98181.22;;;10.43;66.41
4570;BME280;2297;51.442;6.996;2023-04-01T07:46:56;98190.88;;;10.27;66.72
4570;BME280;2297;51.442;6.996;2023-04-01T07:49:30;98191.56;;;10.30;67.09
4570;BME280;2297;51.442;6.996;2023-04-01T07:52:06;98199.94;;;10.55;66.53
4570;BME280;2297;51.442;6.996;2023-04-01T07:54:39;98200.94;;;10.36;66.44
4570;BME280;2297;51.442;6.996;2023-04-01T07:57:11;98205.22;;;10.55;65.73
4570;BME280;2297;51.442;6.996;2023-04-01T07:59:45;98207.13;;;10.53;65.72
4570;BME280;2297;51.442;6.996;2023-04-01T08:02:28;98216.38;;;9.93;67.62
4570;BME280;2297;51.442;6.996;2023-04-01T08:05:03;98211.03;;;9.94;67.83
4570;BME280;2297;51.442;6.996;2023-04-01T08:07:37;98213.88;;;10.25;66.85
4570;BME280;2297;51.442;6.996;2023-04-01T08:10:11;98215.22;;;10.32;66.71
4570;BME280;2297;51.442;6.996;2023-04-01T08:12:47;98220.38;;;10.18;67.19
4570;BME280;2297;51.442;6.996;2023-04-01T08:15:43;98227.13;;;10.57;66.01
4570;BME280;2297;51.442;6.996;2023-04-01T08:18:17;98223.28;;;10.46;66.35
4570;BME280;2297;51.442;6.996;2023-04-01T08:20:51;98240.75;;;10.65;65.89
4570;BME280;2297;51.442;6.996;2023-04-01T08:23:22;98238.53;;;10.24;66.95
4570;BME280;2297;51.442;6.996;2023-04-01T08:25:53;98241.94;;;9.91;67.87
4570;BME280;2297;51.442;6.996;2023-04-01T08:28:26;98245.84;;;10.19;67.28
4570;BME280;2297;51.442;6.996;2023-04-01T08:31:00;98248.44;;;10.36;67.19
4570;BME280;2297;51.442;6.996;2023-04-01T08:33:30;98245.34;;;10.28;66.99
4570;BME280;2297;51.442;6.996;2023-04-01T08:36:02;98256.81;;;10.60;65.83
4570;BME280;2297;51.442;6.996;2023-04-01T08:38:31;98247.63;;;10.52;66.37
4570;BME280;2297;51.442;6.996;2023-04-01T08:41:01;98261.44;;;10.57;66.40
4570;BME280;2297;51.442;6.996;2023-04-01T08:46:48;98255.63;;;10.50;66.07
4570;BME280;2297;51.442;6.996;2023-04-01T08:49:25;98265.69;;;10.08;67.14
4570;BME280;2297;51.442;6.996;2023-04-01T08:55:04;98270.06;;;10.43;66.39
4570;BME280;2297;51.442;6.996;2023-04-01T08:57:46;98278.56;;;10.32;66.83
4570;BME280;2297;51.442;6.996;2023-04-01T09:00:24;98276.34;;;10.40;67.18
4570;BME280;2297;51.442;6.996;2023-04-01T09:03:24;98275.78;;;10.69;65.97
4570;BME280;2297;51.442;6.996;2023-04-01T09:06:29;98286.25;;;10.70;65.88
4570;BME280;2297;51.442;6.996;2023-04-01T09:09:25;98286.31;;;10.35;66.49
4570;BME280;2297;51.442;6.996;2023-04-01T09:17:55;98291.72;;;10.50;66.25
4570;BME280;2297;51.442;6.996;2023-04-01T09:20:46;98296.47;;;10.76;65.54
4570;BME280;2297;51.442;6.996;2023-04-01T09:23:43;98301.19;;;10.87;65.82
4570;BME280;2297;51.442;6.996;2023-04-01T09:26:37;98306.47;;;11.03;65.08
4570;BME280;2297;51.442;6.996;2023-04-01T09:29:18;98307.47;;;10.51;66.55
4570;BME280;2297;51.442;6.996;2023-04-01T09:32:04;98315.47;;;10.50;66.71
4570;BME280;2297;51.442;6.996;2023-04-01T09:34:54;98313.25;;;10.75;65.64
4570;BME280;2297;51.442;6.996;2023-04-01T09:37:34;98322.75;;;10.62;66.27
4570;BME280;2297;51.442;6.996;2023-04-01T09:40:14;98331.41;;;10.30;67.22
4570;BME280;2297;51.442;6.996;2023-04-01T09:42:44;98316.31;;;10.84;66.03
4570;BME280;2297;51.442;6.996;2023-04-01T09:45:23;98330.81;;;10.76;65.55
4570;BME280;2297;51.442;6.996;2023-04-01T09:48:02;98321.03;;;10.61;66.13
4570;BME280;2297;51.442;6.996;2023-04-01T09:50:35;98318.91;;;11.01;65.58
4570;BME280;2297;51.442;6.996;2023-04-01T10:03:01;98333.22;;;10.97;65.08
4570;BME280;2297;51.442;6.996;2023-04-01T10:09:20;98334.19;;;10.78;65.80
4570;BME280;2297;51.442;6.996;2023-04-01T10:12:24;98338.41;;;11.48;64.77
4570;BME280;2297;51.442;6.996;2023-04-01T10:15:39;98349.31;;;11.58;64.54
4570;BME280;2297;51.442;6.996;2023-04-01T10:18:27;98347.25;;;11.63;64.63
4570;BME280;2297;51.442;6.996;2023-04-01T10:21:11;98349.00;;;11.48;64.91
4570;BME280;2297;51.442;6.996;2023-04-01T10:24:11;98345.22;;;11.36;64.77
4570;BME280;2297;51.442;6.996;2023-04-01T10:27:10;98350.50;;;11.20;65.33
4570;BME280;2297;51.442;6.996;2023-04-01T10:33:30;98356.56;;;11.38;65.10
4570;BME280;2297;51.442;6.996;2023-04-01T10:39:34;98364.28;;;11.25;65.17
4570;BME280;2297;51.442;6.996;2023-04-01T10:42:32;98361.22;;;11.17;65.27
4570;BME280;2297;51.442;6.996;2023-04-01T10:45:44;98365.09;;;10.94;65.97
4570;BME280;2297;51.442;6.996;2023-04-01T10:51:42;98371.47;;;10.90;66.39
4570;BME280;2297;51.442;6.996;2023-04-01T10:54:41;98370.16;;;10.81;66.29
4570;BME280;2297;51.442;6.996;2023-04-01T10:57:20;98381.69;;;11.13;65.67
4570;BME280;2297;51.442;6.996;2023-04-01T11:00:18;98380.19;;;10.74;66.58
4570;BME280;2297;51.442;6.996;2023-04-01T11:03:31;98385.72;;;11.03;66.49
4570;BME280;2297;51.442;6.996;2023-04-01T11:09:28;98384.09;;;11.34;65.50
4570;BME280;2297;51.442;6.996;2023-04-01T11:12:29;98389.88;;;11.25;65.38
4570;BME280;2297;51.442;6.996;2023-04-01T11:15:37;98394.88;;;10.96;66.03
4570;BME280;2297;51.442;6.996;2023-04-01T11:18:37;98396.28;;;11.03;66.19
4570;BME280;2297;51.442;6.996;2023-04-01T11:24:39;98410.78;;;11.29;65.55
4570;BME280;2297;51.442;6.996;2023-04-01T11:27:25;98412.13;;;11.21;65.98
4570;BME280;2297;51.442;6.996;2023-04-01T11:30:06;98403.91;;;11.59;65.08
4570;BME280;2297;51.442;6.996;2023-04-01T11:32:45;98412.06;;;11.54;65.20
4570;BME280;2297;51.442;6.996;2023-04-01T11:35:47;98408.50;;;11.71;64.52
4570;BME280;2297;51.442;6.996;2023-04-01T11:38:33;98416.41;;;11.55;65.01
4570;BME280;2297;51.442;6.996;2023-04-01T11:41:17;98418.72;;;11.93;64.15
4570;BME280;2297;51.442;6.996;2023-04-01T11:43:57;98422.88;;;11.34;65.33
4570;BME280;2297;51.442;6.996;2023-04-01T11:46:34;98415.00;;;11.66;64.84
4570;BME280;2297;51.442;6.996;2023-04-01T11:49:20;98421.13;;;11.66;64.76
4570;BME280;2297;51.442;6.996;2023-04-01T11:52:15;98425.56;;;11.81;64.62
4570;BME280;2297;51.442;6.996;2023-04-01T11:54:56;98431.59;;;11.68;64.42
4570;BME280;2297;51.442;6.996;2023-04-01T11:57:43;98446.28;;;11.73;64.68
4570;BME280;2297;51.442;6.996;2023-04-01T12:00:35;98438.69;;;11.67;65.25
4570;BME280;2297;51.442;6.996;2023-04-01T12:03:26;98439.03;;;11.61;65.31
4570;BME280;2297;51.442;6.996;2023-04-01T12:06:02;98452.31;;;11.59;65.51
4570;BME280;2297;51.442;6.996;2023-04-01T12:08:39;98453.88;;;11.63;65.18
4570;BME280;2297;51.442;6.996;2023-04-01T12:11:15;98461.47;;;11.86;64.80
4570;BME280;2297;51.442;6.996;2023-04-01T12:13:49;98461.34;;;11.39;65.71
4570;BME280;2297;51.442;6.996;2023-04-01T12:16:36;98454.38;;;12.02;64.37
4570;BME280;2297;51.442;6.996;2023-04-01T12:19:15;98462.16;;;12.05;64.27
4570;BME280;2297;51.442;6.996;2023-04-01T12:21:52;98473.91;;;11.68;64.80
4570;BME280;2297;51.442;6.996;2023-04-01T12:24:44;98466.34;;;11.77;65.46
4570;BME280;2297;51.442;6.996;2023-04-01T12:27:22;98474.59;;;11.71;65.60
4570;BME280;2297;51.442;6.996;2023-04-01T12:33:23;98477.94;;;11.91;64.75
4570;BME280;2297;51.442;6.996;2023-04-01T12:36:00;98480.41;;;11.94;64.77
4570;BME280;2297;51.442;6.996;2023-04-01T12:38:38;98488.84;;;11.85;64.57
4570;BME280;2297;51.442;6.996;2023-04-01T12:41:14;98494.66;;;11.75;64.53
4570;BME280;2297;51.442;6.996;2023-04-01T12:43:58;98497.69;;;11.68;65.19
4570;BME280;2297;51.442;6.996;2023-04-01T12:46:40;98495.66;;;11.73;65.18
4570;BME280;2297;51.442;6.996;2023-04-01T12:49:23;98501.31;;;11.83;65.02
4570;BME280;2297;51.442;6.996;2023-04-01T12:52:05;98506.25;;;11.73;64.59
4570;BME280;2297;51.442;6.996;2023-04-01T12:57:45;98512.34;;;11.91;65.80
4570;BME280;2297;51.442;6.996;2023-04-01T13:00:30;98514.94;;;11.59;66.49
4570;BME280;2297;51.442;6.996;2023-04-01T13:03:16;98520.66;;;11.16;66.82
4570;BME280;2297;51.442;6.996;2023-04-01T13:06:12;98526.16;;;11.46;66.59
4570;BME280;2297;51.442;6.996;2023-04-01T13:08:46;98529.31;;;11.20;66.27
4570;BME280;2297;51.442;6.996;2023-04-01T13:11:20;98516.47;;;11.29;67.07
4570;BME280;2297;51.442;6.996;2023-04-01T13:14:08;98526.66;;;10.85;68.23
4570;BME280;2297;51.442;6.996;2023-04-01T13:16:43;98532.84;;;10.84;68.18
4570;BME280;2297;51.442;6.996;2023-04-01T13:19:17;98531.75;;;11.05;67.35
4570;BME280;2297;51.442;6.996;2023-04-01T13:21:54;98531.56;;;10.92;68.16
4570;BME280;2297;51.442;6.996;2023-04-01T13:24:31;98534.13;;;11.11;67.38
4570;BME280;2297;51.442;6.996;2023-04-01T13:27:07;98536.94;;;10.54;68.83
4570;BME280;2297;51.442;6.996;2023-04-01T13:29:38;98539.22;;;10.97;68.16
4570;BME280;2297;51.442;6.996;2023-04-01T13:32:23;98552.47;;;11.14;66.87
4570;BME280;2297;51.442;6.996;2023-04-01T13:35:08;98550.19;;;10.89;67.61
4570;BME280;2297;51.442;6.996;2023-04-01T13:37:51;98548.63;;;11.03;67.89
4570;BME280;2297;51.442;6.996;2023-04-01T13:40:30;98562.25;;;10.95;67.55
4570;BME280;2297;51.442;6.996;2023-04-01T13:43:04;98574.84;;;11.25;66.80
4570;BME280;2297;51.442;6.996;2023-04-01T13:45:41;98564.09;;;11.28;66.96
4570;BME280;2297;51.442;6.996;2023-04-01T13:51:19;98563.53;;;11.56;66.23
4570;BME280;2297;51.442;6.996;2023-04-01T13:54:21;98568.53;;;11.45;66.33
4570;BME280;2297;51.442;6.996;2023-04-01T13:56:59;98572.03;;;11.28;66.52
4570;BME280;2297;51.442;6.996;2023-04-01T14:00:00;98573.81;;;11.45;66.02
4570;BME280;2297;51.442;6.996;2023-04-01T14:02:46;98575.63;;;11.44;65.90
4570;BME280;2297;51.442;6.996;2023-04-01T14:05:28;98577.47;;;11.42;66.12
4570;BME280;2297;51.442;6.996;2023-04-01T14:08:06;98580.91;;;11.44;66.18
4570;BME280;2297;51.442;6.996;2023-04-01T14:10:42;98580.59;;;11.16;67.26
4570;BME280;2297;51.442;6.996;2023-04-01T14:13:17;98586.97;;;11.11;68.01
4570;BME280;2297;51.442;6.996;2023-04-01T14:15:58;98588.22;;;11.39;67.77
4570;BME280;2297;51.442;6.996;2023-04-01T14:18:39;98591.16;;;11.33;68.06
4570;BME280;2297;51.442;6.996;2023-04-01T14:21:17;98596.28;;;11.54;67.55
4570;BME280;2297;51.442;6.996;2023-04-01T14:24:08;98597.06;;;11.38;67.64
4570;BME280;2297;51.442;6.996;2023-04-01T14:29:33;98596.09;;;11.57;67.45
4570;BME280;2297;51.442;6.996;2023-04-01T14:32:31;98603.97;;;11.41;66.67
4570;BME280;2297;51.442;6.996;2023-04-01T14:38:27;98610.81;;;11.27;67.18
4570;BME280;2297;51.442;6.996;2023-04-01T14:40:56;98619.59;;;11.28;66.96
4570;BME280;2297;51.442;6.996;2023-04-01T14:43:47;98617.66;;;11.31;66.92
4570;BME280;2297;51.442;6.996;2023-04-01T14:46:34;98620.94;;;11.37;66.72
4570;BME280;2297;51.442;6.996;2023-04-01T14:49:13;98631.38;;;10.86;67.26
4570;BME280;2297;51.442;6.996;2023-04-01T14:51:41;98625.50;;;11.33;66.81
4570;BME280;2297;51.442;6.996;2023-04-01T14:54:13;98630.31;;;11.42;66.38
4570;BME280;2297;51.442;6.996;2023-04-01T14:56:48;98628.00;;;11.19;67.06
4570;BME280;2297;51.442;6.996;2023-04-01T14:59:26;98637.22;;;11.10;66.78
4570;BME280;2297;51.442;6.996;2023-04-01T15:01:59;98634.53;;;11.29;66.82
4570;BME280;2297;51.442;6.996;2023-04-01T15:04:46;98638.72;;;11.51;66.42
4570;BME280;2297;51.442;6.996;2023-04-01T15:07:34;98640.34;;;11.53;66.28
4570;BME280;2297;51.442;6.996;2023-04-01T15:10:12;98646.56;;;11.70;65.90
4570;BME280;2297;51.442;6.996;2023-04-01T15:12:52;98652.66;;;11.88;65.68
4570;BME280;2297;51.442;6.996;2023-04-01T15:15:34;98653.09;;;12.13;65.23
4570;BME280;2297;51.442;6.996;2023-04-01T15:18:08;98652.09;;;11.65;65.49
4570;BME280;2297;51.442;6.996;2023-04-01T15:23:57;98658.44;;;11.78;65.46
4570;BME280;2297;51.442;6.996;2023-04-01T15:26:51;98662.88;;;11.78;65.92
4570;BME280;2297;51.442;6.996;2023-04-01T15:32:17;98668.19;;;11.78;65.74
4570;BME280;2297;51.442;6.996;2023-04-01T15:34:51;98674.31;;;11.61;65.63